createdAt,value
2022-10-18T00:05:17.403Z,102185.41
2022-10-18T00:10:33.125Z,102179.56
2022-10-18T00:15:48.053Z,102190.75
2022-10-18T00:21:03.070Z,102188.19
2022-10-18T00:26:17.875Z,102186.69
2022-10-18T00:31:33.135Z,102187.94
2022-10-18T00:36:48.148Z,102195.06
2022-10-18T00:42:03.074Z,102192.78
2022-10-18T00:47:18.442Z,102194.53
2022-10-18T00:52:34.210Z,102197.88
2022-10-18T00:57:49.147Z,102201.66
2022-10-18T01:03:41.487Z,102201.16
2022-10-18T01:08:57.517Z,102191.25
2022-10-18T01:14:13.165Z,102198.13
2022-10-18T01:19:28.336Z,102200.16
2022-10-18T01:24:44.093Z,102204.16
2022-10-18T01:29:59.042Z,102206.19
2022-10-18T01:35:14.083Z,102202.63
2022-10-18T01:40:29.103Z,102199.59
2022-10-18T01:45:44.070Z,102205.97
2022-10-18T01:50:59.336Z,102206.72
2022-10-18T01:56:15.424Z,102205.97
2022-10-18T02:01:31.418Z,102205.19
2022-10-18T02:06:47.109Z,102205.19
2022-10-18T02:12:02.075Z,102202.16
2022-10-18T02:17:17.377Z,102202.94
2022-10-18T02:22:33.428Z,102204.16
2022-10-18T02:27:49.113Z,102211.78
2022-10-18T02:33:04.119Z,102214.59
2022-10-18T02:38:19.400Z,102212.56
2022-10-18T02:43:35.393Z,102206.97
2022-10-18T02:48:51.104Z,102202.94
2022-10-18T02:54:06.437Z,102194.56
2022-10-18T02:59:22.468Z,102201.66
2022-10-18T03:04:38.075Z,102197.59
2022-10-18T03:09:53.104Z,102206.75
2022-10-18T03:15:08.184Z,102212.31
2022-10-18T03:20:23.406Z,102209.53
2022-10-18T03:25:41.603Z,102200.91
2022-10-18T03:31:00.386Z,102217.66
2022-10-18T03:36:16.097Z,102212.09
2022-10-18T03:41:31.469Z,102218.97
2022-10-18T03:46:47.434Z,102229.09
2022-10-18T03:52:03.093Z,102220.44
2022-10-18T03:57:18.129Z,102211.06
2022-10-18T04:02:33.304Z,102209.53
2022-10-18T04:07:49.108Z,102211.56
2022-10-18T04:13:04.100Z,102215.34
2022-10-18T04:18:19.080Z,102219.16
2022-10-18T04:23:37.935Z,102222.19
2022-10-18T04:28:54.288Z,102211.25
2022-10-18T04:34:10.098Z,102211.47
2022-10-18T04:39:25.087Z,102211.22
2022-10-18T04:44:40.092Z,102226.19
2022-10-18T04:49:55.173Z,102212.75
2022-10-18T04:55:10.414Z,102216.00
2022-10-18T05:00:26.313Z,102216.00
2022-10-18T05:06:00.865Z,102220.31
2022-10-18T05:11:17.111Z,102222.84
2022-10-18T05:16:32.414Z,102215.47
2022-10-18T05:21:48.091Z,102221.81
2022-10-18T05:27:03.396Z,102227.91
2022-10-18T05:32:18.397Z,102224.84
2022-10-18T05:37:34.407Z,102227.34
2022-10-18T05:42:50.121Z,102240.56
2022-10-18T05:48:05.124Z,102253.00
2022-10-18T05:53:37.241Z,102252.72
2022-10-18T05:58:53.131Z,102251.97
2022-10-18T06:04:08.217Z,102260.84
2022-10-18T06:09:23.379Z,102275.28
2022-10-18T06:14:39.208Z,102278.59
2022-10-18T06:19:54.216Z,102283.41
2022-10-18T06:25:09.163Z,102283.91
2022-10-18T06:30:24.501Z,102296.03
2022-10-18T06:35:40.108Z,102298.56
2022-10-18T06:40:55.494Z,102317.34
2022-10-18T06:46:10.886Z,102314.28
2022-10-18T06:51:26.434Z,102337.84
2022-10-18T06:56:42.144Z,102341.91
2022-10-18T07:01:57.130Z,102343.66
2022-10-18T07:07:12.157Z,102355.81
2022-10-18T07:12:27.392Z,102365.94
2022-10-18T07:17:43.093Z,102367.19
2022-10-18T07:22:58.171Z,102374.03
2022-10-18T07:28:14.113Z,102390.03
2022-10-18T07:33:28.877Z,102373.78
2022-10-18T07:38:44.105Z,102382.59
2022-10-18T07:43:59.400Z,102386.69
2022-10-18T07:49:15.372Z,102394.28
2022-10-18T07:54:31.109Z,102406.22
2022-10-18T07:59:46.137Z,102395.53
2022-10-18T08:05:00.845Z,102407.47
2022-10-18T08:10:16.158Z,102419.88
2022-10-18T08:15:31.105Z,102424.69
2022-10-18T08:20:46.153Z,102428.25
2022-10-18T08:26:01.112Z,102430.25
2022-10-18T08:31:16.493Z,102443.44
2022-10-18T08:36:32.115Z,102451.06
2022-10-18T08:41:47.105Z,102441.16
2022-10-18T08:47:02.180Z,102439.59
2022-10-18T08:52:17.315Z,102438.06
2022-10-18T08:57:32.468Z,102435.28
2022-10-18T09:02:48.107Z,102427.69
2022-10-18T09:08:03.144Z,102429.69
2022-10-18T09:13:18.122Z,102428.97
2022-10-18T09:18:33.134Z,102438.06
2022-10-18T09:23:48.217Z,102435.28
2022-10-18T09:29:03.008Z,102442.91
2022-10-18T09:34:18.145Z,102453.28
2022-10-18T09:39:33.101Z,102453.28
2022-10-18T09:44:48.144Z,102460.91
2022-10-18T09:50:03.140Z,102472.53
2022-10-18T09:55:18.088Z,102473.81
2022-10-18T10:00:33.489Z,102481.09
2022-10-18T10:05:49.131Z,102465.63
2022-10-18T10:11:04.203Z,102466.38
2022-10-18T10:16:19.190Z,102474.00
2022-10-18T10:21:34.163Z,102482.88
2022-10-18T10:26:49.168Z,102473.75
2022-10-18T10:32:04.154Z,102483.63
2022-10-18T10:37:19.200Z,102476.53
2022-10-18T10:42:34.370Z,102490.47
2022-10-18T10:47:50.150Z,102488.16
2022-10-18T10:53:05.182Z,102496.06
2022-10-18T10:58:20.151Z,102488.16
2022-10-18T11:03:34.921Z,102491.44
2022-10-18T11:08:50.477Z,102498.25
2022-10-18T11:14:24.710Z,102504.34
2022-10-18T11:19:41.160Z,102507.63
2022-10-18T11:24:55.921Z,102502.81
2022-10-18T11:30:11.271Z,102497.25
2022-10-18T11:35:26.162Z,102498.78
2022-10-18T11:40:40.911Z,102494.72
2022-10-18T11:45:56.118Z,102477.97
2022-10-18T11:51:11.164Z,102489.44
2022-10-18T11:56:26.142Z,102483.34
2022-10-18T12:01:41.146Z,102483.63
2022-10-18T12:06:56.152Z,102481.63
2022-10-18T12:12:11.117Z,102466.13
2022-10-18T12:17:42.816Z,102475.28
2022-10-18T12:22:59.490Z,102469.41
2022-10-18T12:28:15.422Z,102468.94
2022-10-18T12:33:31.147Z,102466.81
2022-10-18T12:38:46.149Z,102464.78
2022-10-18T12:44:01.110Z,102467.56
2022-10-18T12:49:16.147Z,102472.63
2022-10-18T12:54:31.408Z,102469.06
2022-10-18T12:59:47.429Z,102477.44
2022-10-18T13:05:03.157Z,102463.19
2022-10-18T13:10:18.159Z,102454.16
2022-10-18T13:15:34.316Z,102454.59
2022-10-18T13:20:50.179Z,102438.28
2022-10-18T13:26:05.138Z,102436.03
2022-10-18T13:31:20.137Z,102429.19
2022-10-18T13:36:35.122Z,102425.94
2022-10-18T13:41:53.662Z,102430.03
2022-10-18T13:47:10.182Z,102433.88
2022-10-18T13:52:25.142Z,102446.63
2022-10-18T13:57:40.147Z,102469.25
2022-10-18T14:02:59.734Z,102450.75
2022-10-18T14:08:15.216Z,102453.78
2022-10-18T14:13:30.198Z,102455.81
2022-10-18T14:18:45.141Z,102459.44
2022-10-18T14:24:00.165Z,102468.22
2022-10-18T14:29:15.002Z,102470.63
2022-10-18T14:34:30.143Z,102461.03
2022-10-18T14:39:45.194Z,102463.59
2022-10-18T14:45:00.248Z,102455.91
2022-10-18T14:50:15.176Z,102458.16
2022-10-18T14:55:29.997Z,102462.94
2022-10-18T15:00:47.736Z,102456.91
2022-10-18T15:06:04.477Z,102461.28
2022-10-18T15:11:20.478Z,102460.47
2022-10-18T15:16:36.152Z,102459.16
2022-10-18T15:21:53.552Z,102457.84
2022-10-18T15:27:11.467Z,102464.50
2022-10-18T15:32:27.153Z,102469.41
2022-10-18T15:37:42.194Z,102472.75
2022-10-18T15:42:57.508Z,102468.94
2022-10-18T15:48:13.204Z,102468.44
2022-10-18T15:53:28.128Z,102471.53
2022-10-18T15:58:43.498Z,102478.13
2022-10-18T16:03:59.179Z,102486.75
2022-10-18T16:09:14.183Z,102487.03
2022-10-18T16:14:29.190Z,102497.44
2022-10-18T16:19:44.184Z,102490.31
2022-10-18T16:24:59.465Z,102487.03
2022-10-18T16:30:16.356Z,102485.81
2022-10-18T16:35:32.213Z,102500.78
2022-10-18T16:40:47.548Z,102506.38
2022-10-18T16:46:03.191Z,102500.28
2022-10-18T16:51:18.141Z,102499.78
2022-10-18T16:56:33.472Z,102511.72
2022-10-18T17:01:49.217Z,102515.31
2022-10-18T17:07:04.225Z,102526.50
2022-10-18T17:12:19.607Z,102534.06
2022-10-18T17:17:35.380Z,102547.56
2022-10-18T17:22:51.209Z,102543.25
2022-10-18T17:28:06.124Z,102558.72
2022-10-18T17:33:20.917Z,102564.31
2022-10-18T17:38:36.207Z,102555.94
2022-10-18T17:43:51.232Z,102558.44
2022-10-18T17:49:06.192Z,102561.72
2022-10-18T17:54:21.222Z,102560.47
2022-10-18T17:59:36.518Z,102559.72
2022-10-18T18:04:52.150Z,102571.66
2022-10-18T18:10:07.197Z,102583.59
2022-10-18T18:15:22.208Z,102593.03
2022-10-18T18:20:37.419Z,102593.78
2022-10-18T18:25:53.236Z,102588.19
2022-10-18T18:31:08.163Z,102590.22
2022-10-18T18:36:23.218Z,102595.03
2022-10-18T18:41:38.156Z,102578.78
2022-10-18T18:46:53.221Z,102577.56
2022-10-18T18:52:08.235Z,102603.44
2022-10-18T18:57:23.150Z,102599.38
2022-10-18T19:02:38.539Z,102607.75
2022-10-18T19:07:54.191Z,102598.63
2022-10-18T19:13:09.179Z,102602.69
2022-10-18T19:18:24.569Z,102611.06
2022-10-18T19:23:40.172Z,102597.09
2022-10-18T19:28:55.248Z,102608.28
2022-10-18T19:34:10.649Z,102614.59
2022-10-18T19:39:25.931Z,102606.50
2022-10-18T19:44:41.200Z,102607.28
2022-10-18T19:49:56.156Z,102608.81
2022-10-18T19:55:11.528Z,102599.16
2022-10-18T20:00:27.228Z,102596.66
2022-10-18T20:05:42.240Z,102597.41
2022-10-18T20:10:57.176Z,102608.56
2022-10-18T20:16:12.168Z,102604.53
2022-10-18T20:21:27.214Z,102608.84
2022-10-18T20:26:42.590Z,102606.84
2022-10-18T20:31:58.175Z,102612.41
2022-10-18T20:37:13.191Z,102615.69
2022-10-18T20:42:28.392Z,102611.66
2022-10-18T20:47:44.181Z,102610.13
2022-10-18T20:52:59.154Z,102603.28
2022-10-18T20:58:14.493Z,102600.47
2022-10-18T21:03:30.178Z,102587.75
2022-10-18T21:08:45.196Z,102589.31
2022-10-18T21:14:00.240Z,102587.28
2022-10-18T21:19:15.186Z,102579.38
2022-10-18T21:24:30.173Z,102583.72
2022-10-18T21:29:45.181Z,102583.72
2022-10-18T21:35:00.490Z,102580.91
2022-10-18T21:40:16.181Z,102580.41
2022-10-18T21:45:31.208Z,102589.56
2022-10-18T21:50:46.220Z,102585.50
2022-10-18T21:56:01.254Z,102585.28
2022-10-18T22:01:16.293Z,102591.13
2022-10-18T22:06:32.314Z,102588.09
2022-10-18T22:11:47.186Z,102590.63
2022-10-18T22:17:02.474Z,102574.31
2022-10-18T22:22:18.173Z,102582.72
2022-10-18T22:27:33.497Z,102577.59
2022-10-18T22:32:49.233Z,102578.88
2022-10-18T22:38:04.187Z,102574.56
2022-10-18T22:43:19.445Z,102574.56
2022-10-18T22:48:35.201Z,102568.97
2022-10-18T22:53:50.046Z,102571.75
2022-10-18T22:59:05.474Z,102568.19
2022-10-18T23:04:21.220Z,102574.00
2022-10-18T23:09:36.220Z,102566.63
2022-10-18T23:14:51.193Z,102579.81
2022-10-18T23:20:06.198Z,102571.44
2022-10-18T23:25:21.192Z,102566.06
2022-10-18T23:30:36.524Z,102571.41
2022-10-18T23:35:52.517Z,102568.31
2022-10-18T23:41:08.178Z,102565.25
2022-10-18T23:46:23.497Z,102564.47
2022-10-18T23:51:39.438Z,102573.63
2022-10-18T23:56:55.520Z,102576.91
